createdAt,value
2022-08-22T00:02:32.927Z,3.47
2022-08-22T00:02:59.903Z,4.00
2022-08-22T00:03:07.476Z,3.22
2022-08-22T00:05:46.575Z,3.70
2022-08-22T00:09:24.518Z,3.60
2022-08-22T00:12:34.332Z,3.80
2022-08-22T00:15:57.672Z,3.93
2022-08-22T00:19:20.995Z,4.00
2022-08-22T00:22:47.623Z,3.63
2022-08-22T00:26:04.221Z,3.67
2022-08-22T00:29:15.527Z,3.50
2022-08-22T00:32:40.013Z,3.60
2022-08-22T00:35:48.166Z,3.57
2022-08-22T00:39:28.348Z,3.73
2022-08-22T00:43:11.958Z,3.80
2022-08-22T00:46:28.961Z,3.60
2022-08-22T00:50:08.019Z,3.80
2022-08-22T00:53:36.791Z,3.70
2022-08-22T00:56:58.360Z,3.97
2022-08-22T01:00:13.094Z,3.43
2022-08-22T01:03:36.902Z,3.37
2022-08-22T01:07:03.025Z,3.47
2022-08-22T01:10:22.837Z,3.70
2022-08-22T01:13:37.784Z,3.50
2022-08-22T01:17:20.438Z,3.27
2022-08-22T01:20:49.705Z,3.03
2022-08-22T01:24:18.057Z,3.40
2022-08-22T01:27:51.079Z,3.10
2022-08-22T01:31:12.212Z,3.10
2022-08-22T01:34:51.533Z,3.33
2022-08-22T01:38:21.511Z,3.50
2022-08-22T01:41:32.034Z,3.30
2022-08-22T01:44:56.918Z,3.37
2022-08-22T01:48:31.542Z,3.03
2022-08-22T01:51:54.996Z,3.00
2022-08-22T01:55:02.772Z,3.40
2022-08-22T01:58:16.946Z,3.03
2022-08-22T02:01:38.002Z,3.50
2022-08-22T02:04:48.209Z,3.40
2022-08-22T02:07:55.423Z,3.10
2022-08-22T02:11:05.937Z,3.23
2022-08-22T02:14:31.553Z,3.07
2022-08-22T02:17:50.382Z,3.37
2022-08-22T02:21:24.409Z,3.20
2022-08-22T02:24:44.629Z,3.50
2022-08-22T02:27:57.375Z,3.20
2022-08-22T02:31:09.329Z,3.50
2022-08-22T02:34:32.214Z,3.20
2022-08-22T02:37:36.666Z,3.40
2022-08-22T02:41:14.140Z,2.90
2022-08-22T02:44:28.493Z,3.17
2022-08-22T02:47:46.057Z,3.20
2022-08-22T02:51:10.391Z,3.50
2022-08-22T02:54:27.863Z,3.30
2022-08-22T02:57:53.287Z,3.30
2022-08-22T03:00:57.530Z,3.00
2022-08-22T03:04:22.351Z,3.10
2022-08-22T03:07:33.480Z,3.37
2022-08-22T03:10:45.682Z,3.30
2022-08-22T03:14:05.554Z,3.10
2022-08-22T03:17:24.215Z,3.07
2022-08-22T03:21:12.779Z,3.30
2022-08-22T03:24:44.399Z,3.50
2022-08-22T03:27:55.092Z,3.37
2022-08-22T03:31:23.441Z,3.30
2022-08-22T03:34:26.990Z,3.00
2022-08-22T03:37:31.305Z,3.37
2022-08-22T03:40:42.766Z,3.23
2022-08-22T03:43:59.014Z,3.40
2022-08-22T03:47:18.474Z,3.33
2022-08-22T03:50:46.308Z,3.40
2022-08-22T03:54:15.305Z,3.43
2022-08-22T03:57:31.964Z,3.27
2022-08-22T04:00:48.602Z,3.30
2022-08-22T04:04:31.601Z,3.80
2022-08-22T04:08:00.003Z,3.50
2022-08-22T04:11:21.450Z,3.50
2022-08-22T04:14:35.959Z,3.40
2022-08-22T04:18:08.415Z,3.20
2022-08-22T04:21:35.346Z,3.40
2022-08-22T04:24:48.970Z,3.30
2022-08-22T04:28:00.177Z,3.40
2022-08-22T04:31:10.171Z,3.43
2022-08-22T04:34:22.321Z,3.50
2022-08-22T04:37:40.443Z,3.43
2022-08-22T04:40:54.189Z,3.50
2022-08-22T04:44:05.722Z,3.70
2022-08-22T04:47:28.507Z,3.90
2022-08-22T04:50:45.474Z,3.23
2022-08-22T04:53:52.542Z,4.00
2022-08-22T04:57:51.591Z,3.20
2022-08-22T05:01:15.324Z,3.60
2022-08-22T05:04:36.817Z,3.30
2022-08-22T05:07:47.035Z,3.47
2022-08-22T05:10:50.612Z,3.67
2022-08-22T05:13:57.398Z,3.33
2022-08-22T05:17:00.243Z,3.67
2022-08-22T05:20:12.085Z,3.20
2022-08-22T05:23:20.269Z,3.70
2022-08-22T05:26:22.169Z,4.07
2022-08-22T05:29:28.695Z,3.50
2022-08-22T05:32:38.175Z,3.27
2022-08-22T05:35:49.539Z,3.50
2022-08-22T05:39:00.492Z,3.60
2022-08-22T05:42:03.705Z,3.40
2022-08-22T05:45:08.534Z,3.47
2022-08-22T05:48:22.648Z,3.50
2022-08-22T05:51:30.452Z,3.47
2022-08-22T05:54:36.450Z,3.40
2022-08-22T05:57:42.287Z,3.17
2022-08-22T06:00:51.984Z,3.40
2022-08-22T06:03:59.393Z,3.67
2022-08-22T06:07:18.162Z,3.40
2022-08-22T06:10:31.031Z,3.67
2022-08-22T06:13:41.443Z,3.10
2022-08-22T06:16:54.431Z,3.10
2022-08-22T06:19:56.026Z,3.03
2022-08-22T06:23:01.829Z,3.17
2022-08-22T06:26:05.411Z,3.40
2022-08-22T06:29:08.722Z,3.40
2022-08-22T06:32:16.223Z,3.13
2022-08-22T06:35:29.762Z,3.37
2022-08-22T06:38:34.802Z,3.60
2022-08-22T06:41:42.361Z,3.17
2022-08-22T06:44:59.701Z,3.10
2022-08-22T06:48:07.355Z,3.30
2022-08-22T06:51:12.324Z,3.47
2022-08-22T06:54:23.567Z,3.87
2022-08-22T06:57:43.712Z,3.43
2022-08-22T07:01:05.679Z,3.77
2022-08-22T07:04:12.963Z,3.80
2022-08-22T07:07:18.744Z,4.00
2022-08-22T07:10:21.969Z,4.03
2022-08-22T07:13:25.412Z,3.67
2022-08-22T07:16:33.851Z,4.07
2022-08-22T07:19:41.561Z,3.80
2022-08-22T07:22:54.195Z,5.07
2022-08-22T07:26:26.870Z,3.77
2022-08-22T07:29:54.246Z,3.97
2022-08-22T07:33:15.297Z,3.67
2022-08-22T07:36:48.983Z,4.10
2022-08-22T07:40:00.822Z,4.23
2022-08-22T07:43:33.294Z,4.47
2022-08-22T07:46:48.226Z,3.60
2022-08-22T07:49:54.901Z,3.80
2022-08-22T07:53:04.915Z,3.90
2022-08-22T07:56:17.754Z,3.57
2022-08-22T07:59:21.350Z,3.80
2022-08-22T08:02:24.004Z,3.40
2022-08-22T08:05:28.480Z,4.13
2022-08-22T08:08:41.507Z,4.10
2022-08-22T08:11:44.853Z,3.53
2022-08-22T08:14:53.306Z,3.73
2022-08-22T08:18:00.363Z,3.90
2022-08-22T08:21:08.409Z,3.90
2022-08-22T08:24:16.148Z,3.60
2022-08-22T08:27:40.801Z,4.00
2022-08-22T08:30:53.659Z,3.80
2022-08-22T08:34:24.323Z,4.00
2022-08-22T08:37:37.199Z,3.97
2022-08-22T08:41:24.250Z,3.63
2022-08-22T08:44:44.322Z,3.58
2022-08-22T08:48:24.930Z,3.80
2022-08-22T08:52:03.829Z,3.80
2022-08-22T08:55:22.006Z,3.60
2022-08-22T08:58:55.097Z,3.78
2022-08-22T09:02:03.993Z,3.70
2022-08-22T09:05:19.546Z,3.50
2022-08-22T09:08:59.574Z,3.50
2022-08-22T09:12:08.514Z,3.67
2022-08-22T09:15:32.315Z,3.53
2022-08-22T09:18:48.447Z,3.67
2022-08-22T09:22:02.278Z,3.35
2022-08-22T09:25:25.192Z,3.78
2022-08-22T09:28:34.731Z,3.45
2022-08-22T09:31:55.889Z,3.65
2022-08-22T09:35:15.090Z,3.63
2022-08-22T09:38:51.365Z,3.42
2022-08-22T09:42:21.047Z,3.60
2022-08-22T09:46:07.397Z,3.40
2022-08-22T09:49:17.820Z,3.50
2022-08-22T09:52:43.741Z,3.50
2022-08-22T09:56:15.303Z,3.55
2022-08-22T09:59:44.775Z,3.33
2022-08-22T10:03:10.946Z,3.22
2022-08-22T10:06:20.864Z,3.22
2022-08-22T10:09:31.326Z,3.90
2022-08-22T10:12:59.531Z,3.35
2022-08-22T10:16:37.112Z,3.10
2022-08-22T10:19:47.521Z,3.50
2022-08-22T10:23:17.657Z,3.47
2022-08-22T10:26:50.705Z,3.20
2022-08-22T10:30:04.347Z,2.97
2022-08-22T10:33:20.237Z,3.20
2022-08-22T10:36:37.798Z,3.10
2022-08-22T10:39:46.556Z,3.20
2022-08-22T10:42:59.468Z,3.25
2022-08-22T10:46:06.958Z,3.70
2022-08-22T10:49:39.153Z,3.15
2022-08-22T10:53:15.127Z,3.35
2022-08-22T10:56:34.919Z,3.53
2022-08-22T10:59:56.532Z,3.50
2022-08-22T11:03:23.420Z,3.42
2022-08-22T11:06:50.303Z,3.25
2022-08-22T11:09:59.535Z,3.28
2022-08-22T11:13:14.909Z,3.40
2022-08-22T11:16:19.265Z,3.90
2022-08-22T11:19:37.441Z,3.85
2022-08-22T11:22:59.339Z,7.43
2022-08-22T11:26:47.272Z,3.83
2022-08-22T11:30:18.122Z,3.60
2022-08-22T11:33:47.438Z,3.25
2022-08-22T11:36:56.421Z,3.10
2022-08-22T11:40:29.339Z,3.05
2022-08-22T11:43:39.775Z,3.65
2022-08-22T11:46:45.643Z,3.33
2022-08-22T11:50:02.562Z,3.22
2022-08-22T11:53:20.270Z,2.90
2022-08-22T11:56:41.683Z,2.92
2022-08-22T11:59:43.421Z,2.90
2022-08-22T12:03:19.627Z,3.35
2022-08-22T12:06:59.041Z,3.20
2022-08-22T12:10:13.833Z,3.00
2022-08-22T12:13:49.162Z,2.90
2022-08-22T12:17:50.823Z,3.20
2022-08-22T12:21:01.365Z,3.20
2022-08-22T12:24:20.835Z,3.22
2022-08-22T12:27:29.298Z,2.95
2022-08-22T12:31:07.437Z,3.22
2022-08-22T12:34:28.372Z,3.08
2022-08-22T12:37:52.179Z,2.92
2022-08-22T12:41:36.096Z,3.00
2022-08-22T12:45:13.037Z,2.65
2022-08-22T12:48:35.682Z,2.67
2022-08-22T12:51:58.925Z,3.20
2022-08-22T12:55:27.328Z,3.03
2022-08-22T12:58:46.052Z,2.83
2022-08-22T13:01:56.594Z,3.10
2022-08-22T13:05:09.136Z,2.85
2022-08-22T13:08:20.007Z,3.20
2022-08-22T13:11:23.650Z,3.55
2022-08-22T13:14:27.656Z,3.17
2022-08-22T13:17:29.949Z,3.17
2022-08-22T13:20:37.382Z,3.15
2022-08-22T13:23:44.770Z,2.80
2022-08-22T13:26:55.369Z,2.72
2022-08-22T13:30:04.590Z,2.75
2022-08-22T13:33:10.933Z,2.30
2022-08-22T13:36:16.911Z,2.90
2022-08-22T13:39:19.752Z,2.70
2022-08-22T13:42:30.961Z,2.42
2022-08-22T13:45:36.043Z,2.53
2022-08-22T13:48:55.725Z,2.88
2022-08-22T13:52:31.666Z,2.80
2022-08-22T13:55:45.352Z,2.50
2022-08-22T13:58:56.337Z,3.03
2022-08-22T14:02:15.268Z,3.00
2022-08-22T14:05:25.110Z,2.47
2022-08-22T14:08:31.738Z,2.80
2022-08-22T14:11:45.240Z,2.65
2022-08-22T14:14:54.247Z,2.80
2022-08-22T14:18:03.378Z,2.63
2022-08-22T14:21:40.074Z,2.60
2022-08-22T14:24:47.701Z,2.95
2022-08-22T14:28:01.285Z,2.65
2022-08-22T14:31:13.774Z,3.20
2022-08-22T14:34:16.203Z,2.90
2022-08-22T14:37:23.585Z,3.40
2022-08-22T14:40:29.186Z,3.13
2022-08-22T14:43:33.645Z,2.80
2022-08-22T14:46:45.254Z,3.13
2022-08-22T14:49:55.554Z,2.88
2022-08-22T14:53:18.211Z,3.15
2022-08-22T14:56:21.570Z,3.30
2022-08-22T14:59:35.169Z,3.28
2022-08-22T15:02:37.197Z,3.28
2022-08-22T15:05:45.649Z,2.85
2022-08-22T15:08:50.562Z,2.90
2022-08-22T15:11:53.345Z,2.60
2022-08-22T15:15:12.782Z,2.88
2022-08-22T15:18:33.588Z,2.67
2022-08-22T15:21:41.302Z,2.60
2022-08-22T15:24:56.351Z,2.70
2022-08-22T15:28:06.767Z,2.70
2022-08-22T15:31:18.756Z,2.85
2022-08-22T15:34:34.267Z,2.65
2022-08-22T15:37:55.437Z,2.50
2022-08-22T15:41:25.276Z,2.50
2022-08-22T15:44:37.245Z,2.55
2022-08-22T15:47:46.901Z,2.72
2022-08-22T15:51:04.659Z,2.50
2022-08-22T15:54:25.339Z,2.70
2022-08-22T15:57:29.082Z,2.92
2022-08-22T16:00:45.214Z,2.70
2022-08-22T16:03:58.513Z,2.53
2022-08-22T16:07:01.453Z,3.60
2022-08-22T16:10:09.649Z,2.85
2022-08-22T16:13:26.382Z,2.72
2022-08-22T16:16:49.811Z,2.65
2022-08-22T16:20:19.984Z,2.67
2022-08-22T16:23:22.525Z,2.83
2022-08-22T16:26:30.056Z,2.88
2022-08-22T16:29:41.239Z,3.03
2022-08-22T16:32:51.742Z,2.63
2022-08-22T16:36:21.110Z,2.95
2022-08-22T16:39:22.737Z,2.65
2022-08-22T16:42:35.530Z,2.53
2022-08-22T16:45:40.781Z,2.90
2022-08-22T16:48:42.261Z,2.60
2022-08-22T16:52:25.900Z,3.30
2022-08-22T16:55:40.859Z,2.88
2022-08-22T16:59:06.085Z,2.65
2022-08-22T17:02:28.872Z,2.63
2022-08-22T17:06:23.104Z,3.10
2022-08-22T17:09:43.050Z,2.83
2022-08-22T17:13:17.137Z,2.80
2022-08-22T17:16:38.100Z,2.50
2022-08-22T17:19:42.486Z,3.05
2022-08-22T17:23:00.086Z,2.85
2022-08-22T17:26:22.789Z,2.45
2022-08-22T17:29:47.702Z,3.08
2022-08-22T17:33:10.886Z,3.45
2022-08-22T17:36:26.708Z,2.80
2022-08-22T17:39:36.069Z,2.90
2022-08-22T17:42:58.679Z,2.70
2022-08-22T17:46:17.276Z,2.78
2022-08-22T17:49:41.865Z,3.20
2022-08-22T17:52:59.549Z,2.92
2022-08-22T17:56:14.392Z,2.72
2022-08-22T17:59:20.612Z,2.97
2022-08-22T18:02:28.621Z,3.03
2022-08-22T18:05:36.397Z,2.65
2022-08-22T18:12:23.062Z,2.90
2022-08-22T18:15:47.219Z,3.10
2022-08-22T18:19:00.861Z,3.17
2022-08-22T18:22:10.843Z,2.95
2022-08-22T18:25:18.024Z,2.95
2022-08-22T18:28:34.009Z,2.80
2022-08-22T18:31:51.160Z,3.25
2022-08-22T18:35:15.634Z,2.85
2022-08-22T18:38:30.009Z,3.15
2022-08-22T18:41:38.689Z,3.20
2022-08-22T18:44:44.513Z,3.17
2022-08-22T18:47:55.748Z,3.00
2022-08-22T18:51:27.570Z,3.03
2022-08-22T18:54:44.844Z,3.13
2022-08-22T18:58:05.034Z,2.75
2022-08-22T19:01:36.286Z,2.92
2022-08-22T19:05:07.132Z,2.90
2022-08-22T19:08:30.303Z,3.08
2022-08-22T19:11:57.930Z,3.05
2022-08-22T19:15:34.436Z,3.60
2022-08-22T19:18:55.694Z,2.92
2022-08-22T19:22:21.730Z,3.10
2022-08-22T19:25:26.376Z,3.05
2022-08-22T19:28:36.005Z,3.33
2022-08-22T19:31:41.077Z,3.15
2022-08-22T19:34:46.887Z,2.88
2022-08-22T19:38:01.151Z,2.80
2022-08-22T19:41:03.675Z,2.55
2022-08-22T19:44:31.245Z,2.72
2022-08-22T19:47:38.380Z,2.75
2022-08-22T19:50:40.103Z,2.50
2022-08-22T19:54:05.943Z,2.83
2022-08-22T19:57:19.181Z,2.88
2022-08-22T20:00:41.088Z,2.63
2022-08-22T20:03:48.582Z,2.60
2022-08-22T20:07:15.359Z,2.40
2022-08-22T20:10:46.909Z,2.42
2022-08-22T20:13:49.668Z,2.30
2022-08-22T20:17:05.412Z,2.75
2022-08-22T20:20:35.760Z,2.20
2022-08-22T20:23:37.661Z,2.65
2022-08-22T20:26:57.336Z,2.08
2022-08-22T20:30:13.294Z,2.53
2022-08-22T20:33:26.351Z,2.33
2022-08-22T20:36:29.531Z,2.28
2022-08-22T20:39:58.973Z,2.70
2022-08-22T20:43:10.631Z,2.13
2022-08-22T20:46:24.032Z,2.20
2022-08-22T20:49:32.345Z,2.10
2022-08-22T20:52:44.297Z,1.90
2022-08-22T20:55:55.881Z,2.25
2022-08-22T20:59:01.016Z,2.15
2022-08-22T21:02:12.257Z,2.13
2022-08-22T21:05:13.617Z,2.10
2022-08-22T21:08:24.296Z,2.05
2022-08-22T21:11:40.071Z,2.10
2022-08-22T21:14:46.054Z,2.25
2022-08-22T21:17:47.557Z,2.17
2022-08-22T21:20:49.033Z,2.30
2022-08-22T21:24:01.099Z,2.30
2022-08-22T21:27:03.575Z,2.20
2022-08-22T21:30:09.638Z,2.30
2022-08-22T21:33:23.928Z,2.05
2022-08-22T21:36:29.107Z,2.33
2022-08-22T21:39:35.631Z,2.13
2022-08-22T21:42:40.342Z,2.13
2022-08-22T21:45:44.192Z,2.40
2022-08-22T21:48:59.247Z,2.38
2022-08-22T21:52:00.767Z,2.13
2022-08-22T21:55:36.803Z,2.20
2022-08-22T21:58:38.782Z,2.20
2022-08-22T22:01:42.824Z,2.10
2022-08-22T22:04:47.327Z,2.00
2022-08-22T22:07:48.760Z,2.05
2022-08-22T22:10:53.174Z,2.10
2022-08-22T22:13:54.629Z,2.05
2022-08-22T22:16:56.083Z,1.98
2022-08-22T22:19:57.639Z,1.83
2022-08-22T22:22:59.314Z,2.00
2022-08-22T22:26:04.016Z,1.90
2022-08-22T22:29:05.653Z,1.80
2022-08-22T22:32:10.386Z,1.90
2022-08-22T22:35:13.660Z,1.92
2022-08-22T22:38:15.433Z,2.00
2022-08-22T22:41:19.088Z,2.00
2022-08-22T22:44:21.646Z,2.10
2022-08-22T22:47:28.754Z,2.03
2022-08-22T22:50:30.405Z,1.95
2022-08-22T22:53:38.384Z,2.20
2022-08-22T22:56:41.968Z,2.03
2022-08-22T22:59:49.339Z,2.10
2022-08-22T23:02:52.550Z,1.90
2022-08-22T23:05:53.978Z,1.93
2022-08-22T23:08:55.829Z,2.43
2022-08-22T23:11:57.281Z,1.97
2022-08-22T23:14:58.884Z,2.00
2022-08-22T23:18:00.540Z,1.80
2022-08-22T23:21:28.947Z,2.23
2022-08-22T23:24:31.116Z,2.03
2022-08-22T23:27:32.574Z,3.87
2022-08-22T23:30:34.058Z,1.80
2022-08-22T23:33:35.482Z,2.13
2022-08-22T23:36:38.088Z,2.13
2022-08-22T23:39:39.741Z,2.00
2022-08-22T23:42:41.653Z,2.20
2022-08-22T23:45:43.123Z,2.33
2022-08-22T23:48:44.742Z,2.10
2022-08-22T23:51:47.504Z,2.20
2022-08-22T23:54:50.221Z,2.03
2022-08-22T23:57:55.923Z,2.03
